sensor_id;sensor_type;location;lat;lon;timestamp;temperature;humidity
8862;DHT22;4799;50.996;4.754;2022-09-09T00:02:21;14.10;99.90
8862;DHT22;4799;50.996;4.754;2022-09-09T00:05:17;14.10;99.90
8862;DHT22;4799;50.996;4.754;2022-09-09T00:07:51;14.00;99.90
8862;DHT22;4799;50.996;4.754;2022-09-09T00:10:37;14.00;99.90
8862;DHT22;4799;50.996;4.754;2022-09-09T00:13:19;14.00;99.90
8862;DHT22;4799;50.996;4.754;2022-09-09T00:16:00;14.00;99.90
8862;DHT22;4799;50.996;4.754;2022-09-09T00:21:14;14.00;99.90
8862;DHT22;4799;50.996;4.754;2022-09-09T00:23:54;14.00;99.90
8862;DHT22;4799;50.996;4.754;2022-09-09T00:26:41;14.00;99.90
8862;DHT22;4799;50.996;4.754;2022-09-09T00:29:25;14.00;99.90
8862;DHT22;4799;50.996;4.754;2022-09-09T00:31:57;14.00;99.90
8862;DHT22;4799;50.996;4.754;2022-09-09T00:34:25;14.00;99.90
8862;DHT22;4799;50.996;4.754;2022-09-09T00:36:53;14.00;99.90
8862;DHT22;4799;50.996;4.754;2022-09-09T00:39:42;13.90;99.90
8862;DHT22;4799;50.996;4.754;2022-09-09T00:42:20;14.00;99.90
8862;DHT22;4799;50.996;4.754;2022-09-09T00:55:33;13.90;99.90
8862;DHT22;4799;50.996;4.754;2022-09-09T00:58:01;13.90;99.90
8862;DHT22;4799;50.996;4.754;2022-09-09T01:00:45;13.90;99.90
8862;DHT22;4799;50.996;4.754;2022-09-09T01:06:15;14.00;99.90
8862;DHT22;4799;50.996;4.754;2022-09-09T01:11:32;14.10;99.90
8862;DHT22;4799;50.996;4.754;2022-09-09T01:14:28;14.20;99.90
8862;DHT22;4799;50.996;4.754;2022-09-09T01:17:03;14.20;99.90
8862;DHT22;4799;50.996;4.754;2022-09-09T01:22:15;14.20;99.90
8862;DHT22;4799;50.996;4.754;2022-09-09T01:25:11;14.30;99.90
8862;DHT22;4799;50.996;4.754;2022-09-09T01:27:42;14.20;99.90
8862;DHT22;4799;50.996;4.754;2022-09-09T01:30:15;14.20;99.90
8862;DHT22;4799;50.996;4.754;2022-09-09T01:32:47;14.20;99.90
8862;DHT22;4799;50.996;4.754;2022-09-09T01:37:42;14.10;99.90
8862;DHT22;4799;50.996;4.754;2022-09-09T01:40:08;14.10;99.90
8862;DHT22;4799;50.996;4.754;2022-09-09T01:42:34;14.20;99.90
8862;DHT22;4799;50.996;4.754;2022-09-09T01:44:59;14.10;99.90
8862;DHT22;4799;50.996;4.754;2022-09-09T01:47:25;14.10;99.90
8862;DHT22;4799;50.996;4.754;2022-09-09T01:49:51;14.10;99.90
8862;DHT22;4799;50.996;4.754;2022-09-09T01:52:17;14.10;99.90
8862;DHT22;4799;50.996;4.754;2022-09-09T01:54:43;14.20;99.90
8862;DHT22;4799;50.996;4.754;2022-09-09T02:00:13;14.10;99.90
8862;DHT22;4799;50.996;4.754;2022-09-09T02:02:58;14.10;99.90
8862;DHT22;4799;50.996;4.754;2022-09-09T02:05:42;14.00;99.90
8862;DHT22;4799;50.996;4.754;2022-09-09T02:08:21;14.00;99.90
8862;DHT22;4799;50.996;4.754;2022-09-09T02:11:01;14.00;99.90
8862;DHT22;4799;50.996;4.754;2022-09-09T02:13:32;14.00;99.90
8862;DHT22;4799;50.996;4.754;2022-09-09T02:16:21;13.90;99.90
8862;DHT22;4799;50.996;4.754;2022-09-09T02:18:57;13.90;99.90
8862;DHT22;4799;50.996;4.754;2022-09-09T02:21:28;13.90;99.90
8862;DHT22;4799;50.996;4.754;2022-09-09T02:23:57;13.90;99.90
8862;DHT22;4799;50.996;4.754;2022-09-09T02:26:25;13.90;99.90
8862;DHT22;4799;50.996;4.754;2022-09-09T02:28:54;13.90;99.90
8862;DHT22;4799;50.996;4.754;2022-09-09T02:31:23;13.90;99.90
8862;DHT22;4799;50.996;4.754;2022-09-09T02:33:58;13.90;99.90
8862;DHT22;4799;50.996;4.754;2022-09-09T02:36:28;13.90;99.90
8862;DHT22;4799;50.996;4.754;2022-09-09T02:38:55;13.90;99.90
8862;DHT22;4799;50.996;4.754;2022-09-09T02:41:28;13.90;99.90
8862;DHT22;4799;50.996;4.754;2022-09-09T02:43:56;13.90;99.90
8862;DHT22;4799;50.996;4.754;2022-09-09T02:49:23;13.90;99.90
8862;DHT22;4799;50.996;4.754;2022-09-09T02:51:59;13.90;99.90
8862;DHT22;4799;50.996;4.754;2022-09-09T02:54:31;13.90;99.90
8862;DHT22;4799;50.996;4.754;2022-09-09T02:57:08;13.90;99.90
8862;DHT22;4799;50.996;4.754;2022-09-09T02:59:36;13.90;99.90
8862;DHT22;4799;50.996;4.754;2022-09-09T03:02:02;13.90;99.90
8862;DHT22;4799;50.996;4.754;2022-09-09T03:04:28;13.90;99.90
8862;DHT22;4799;50.996;4.754;2022-09-09T03:06:55;13.90;99.90
8862;DHT22;4799;50.996;4.754;2022-09-09T03:09:21;13.90;99.90
8862;DHT22;4799;50.996;4.754;2022-09-09T03:11:47;13.90;99.90
8862;DHT22;4799;50.996;4.754;2022-09-09T03:14:13;13.90;99.90
8862;DHT22;4799;50.996;4.754;2022-09-09T03:16:38;13.90;99.90
8862;DHT22;4799;50.996;4.754;2022-09-09T03:19:04;14.00;99.90
8862;DHT22;4799;50.996;4.754;2022-09-09T03:21:30;14.00;99.90
8862;DHT22;4799;50.996;4.754;2022-09-09T03:23:56;14.10;99.90
8862;DHT22;4799;50.996;4.754;2022-09-09T03:26:22;14.10;99.90
8862;DHT22;4799;50.996;4.754;2022-09-09T03:28:48;14.10;99.90
8862;DHT22;4799;50.996;4.754;2022-09-09T03:31:17;14.10;99.90
8862;DHT22;4799;50.996;4.754;2022-09-09T03:33:44;14.10;99.90
8862;DHT22;4799;50.996;4.754;2022-09-09T03:36:10;14.10;99.90
8862;DHT22;4799;50.996;4.754;2022-09-09T03:38:36;14.10;99.90
8862;DHT22;4799;50.996;4.754;2022-09-09T03:41:02;14.00;99.90
8862;DHT22;4799;50.996;4.754;2022-09-09T03:43:28;14.00;99.90
8862;DHT22;4799;50.996;4.754;2022-09-09T03:45:55;14.00;99.90
8862;DHT22;4799;50.996;4.754;2022-09-09T03:48:22;14.00;99.90
8862;DHT22;4799;50.996;4.754;2022-09-09T03:50:50;14.00;99.90
8862;DHT22;4799;50.996;4.754;2022-09-09T03:53:18;14.00;99.90
8862;DHT22;4799;50.996;4.754;2022-09-09T03:55:49;14.00;99.90
8862;DHT22;4799;50.996;4.754;2022-09-09T03:58:16;14.10;99.90
8862;DHT22;4799;50.996;4.754;2022-09-09T04:00:52;14.10;99.90
8862;DHT22;4799;50.996;4.754;2022-09-09T04:03:18;14.10;99.90
8862;DHT22;4799;50.996;4.754;2022-09-09T04:05:44;14.10;99.90
8862;DHT22;4799;50.996;4.754;2022-09-09T04:08:10;14.10;99.90
8862;DHT22;4799;50.996;4.754;2022-09-09T04:10:36;14.10;99.90
8862;DHT22;4799;50.996;4.754;2022-09-09T04:13:04;14.10;99.90
8862;DHT22;4799;50.996;4.754;2022-09-09T04:15:31;14.10;99.90
8862;DHT22;4799;50.996;4.754;2022-09-09T04:17:57;14.10;99.90
8862;DHT22;4799;50.996;4.754;2022-09-09T04:20:22;14.10;99.90
8862;DHT22;4799;50.996;4.754;2022-09-09T04:22:48;14.00;99.90
8862;DHT22;4799;50.996;4.754;2022-09-09T04:25:14;14.00;99.90
8862;DHT22;4799;50.996;4.754;2022-09-09T04:27:40;14.00;99.90
8862;DHT22;4799;50.996;4.754;2022-09-09T04:30:06;13.90;99.90
8862;DHT22;4799;50.996;4.754;2022-09-09T04:32:36;13.90;99.90
8862;DHT22;4799;50.996;4.754;2022-09-09T04:35:03;13.90;99.90
8862;DHT22;4799;50.996;4.754;2022-09-09T04:37:28;13.90;99.90
8862;DHT22;4799;50.996;4.754;2022-09-09T04:39:54;13.90;99.90
8862;DHT22;4799;50.996;4.754;2022-09-09T04:42:20;13.90;99.90
8862;DHT22;4799;50.996;4.754;2022-09-09T04:44:45;13.90;99.90
8862;DHT22;4799;50.996;4.754;2022-09-09T04:47:11;14.00;99.90
8862;DHT22;4799;50.996;4.754;2022-09-09T04:49:37;14.00;99.90
8862;DHT22;4799;50.996;4.754;2022-09-09T04:52:04;14.00;99.90
8862;DHT22;4799;50.996;4.754;2022-09-09T04:54:30;14.10;99.90
8862;DHT22;4799;50.996;4.754;2022-09-09T04:56:55;14.10;99.90
8862;DHT22;4799;50.996;4.754;2022-09-09T04:59:21;14.10;99.90
8862;DHT22;4799;50.996;4.754;2022-09-09T05:01:48;14.10;99.90
8862;DHT22;4799;50.996;4.754;2022-09-09T05:04:15;14.10;99.90
8862;DHT22;4799;50.996;4.754;2022-09-09T05:06:41;14.10;99.90
8862;DHT22;4799;50.996;4.754;2022-09-09T05:09:08;14.10;99.90
8862;DHT22;4799;50.996;4.754;2022-09-09T05:11:34;14.00;99.90
8862;DHT22;4799;50.996;4.754;2022-09-09T05:14:04;14.00;99.90
8862;DHT22;4799;50.996;4.754;2022-09-09T05:16:30;14.00;99.90
8862;DHT22;4799;50.996;4.754;2022-09-09T05:18:57;14.00;99.90
8862;DHT22;4799;50.996;4.754;2022-09-09T05:21:24;14.00;99.90
8862;DHT22;4799;50.996;4.754;2022-09-09T05:23:53;14.00;99.90
8862;DHT22;4799;50.996;4.754;2022-09-09T05:26:21;14.00;99.90
8862;DHT22;4799;50.996;4.754;2022-09-09T05:28:47;14.00;99.90
8862;DHT22;4799;50.996;4.754;2022-09-09T05:31:14;14.00;99.90
8862;DHT22;4799;50.996;4.754;2022-09-09T05:33:42;14.10;99.90
8862;DHT22;4799;50.996;4.754;2022-09-09T05:36:11;14.10;99.90
8862;DHT22;4799;50.996;4.754;2022-09-09T05:38:39;14.10;99.90
8862;DHT22;4799;50.996;4.754;2022-09-09T05:41:06;14.20;99.90
8862;DHT22;4799;50.996;4.754;2022-09-09T05:43:32;14.20;99.90
8862;DHT22;4799;50.996;4.754;2022-09-09T05:46:09;14.20;99.90
8862;DHT22;4799;50.996;4.754;2022-09-09T05:48:40;14.30;99.90
8862;DHT22;4799;50.996;4.754;2022-09-09T05:51:09;14.40;99.90
8862;DHT22;4799;50.996;4.754;2022-09-09T05:53:37;14.40;99.90
8862;DHT22;4799;50.996;4.754;2022-09-09T05:56:10;14.50;99.90
8862;DHT22;4799;50.996;4.754;2022-09-09T05:58:40;14.60;99.90
8862;DHT22;4799;50.996;4.754;2022-09-09T06:03:34;14.80;99.90
8862;DHT22;4799;50.996;4.754;2022-09-09T06:06:01;15.00;99.90
8862;DHT22;4799;50.996;4.754;2022-09-09T06:08:31;15.10;99.90
8862;DHT22;4799;50.996;4.754;2022-09-09T06:11:05;15.20;99.90
8862;DHT22;4799;50.996;4.754;2022-09-09T06:13:31;15.30;99.90
8862;DHT22;4799;50.996;4.754;2022-09-09T06:16:00;15.30;99.90
8862;DHT22;4799;50.996;4.754;2022-09-09T06:18:26;15.40;99.90
8862;DHT22;4799;50.996;4.754;2022-09-09T06:21:04;15.40;99.90
8862;DHT22;4799;50.996;4.754;2022-09-09T06:23:30;15.40;99.90
8862;DHT22;4799;50.996;4.754;2022-09-09T06:28:31;15.30;99.90
8862;DHT22;4799;50.996;4.754;2022-09-09T06:30:59;15.30;99.90
8862;DHT22;4799;50.996;4.754;2022-09-09T06:33:25;15.30;99.90
8862;DHT22;4799;50.996;4.754;2022-09-09T06:35:52;15.30;99.90
8862;DHT22;4799;50.996;4.754;2022-09-09T06:38:18;15.40;99.90
8862;DHT22;4799;50.996;4.754;2022-09-09T06:40:54;15.50;99.90
8862;DHT22;4799;50.996;4.754;2022-09-09T06:43:24;15.60;99.90
8862;DHT22;4799;50.996;4.754;2022-09-09T06:48:43;15.60;99.90
8862;DHT22;4799;50.996;4.754;2022-09-09T06:51:17;15.50;99.90
8862;DHT22;4799;50.996;4.754;2022-09-09T06:53:45;15.50;99.90
8862;DHT22;4799;50.996;4.754;2022-09-09T06:58:40;15.70;99.90
8862;DHT22;4799;50.996;4.754;2022-09-09T07:01:17;15.90;99.90
8862;DHT22;4799;50.996;4.754;2022-09-09T07:03:49;16.10;99.90
8862;DHT22;4799;50.996;4.754;2022-09-09T07:06:36;16.30;99.90
8862;DHT22;4799;50.996;4.754;2022-09-09T07:09:04;16.40;99.90
8862;DHT22;4799;50.996;4.754;2022-09-09T07:11:41;16.40;99.90
8862;DHT22;4799;50.996;4.754;2022-09-09T07:14:08;16.40;99.90
8862;DHT22;4799;50.996;4.754;2022-09-09T07:16:34;16.40;99.90
8862;DHT22;4799;50.996;4.754;2022-09-09T07:19:03;16.30;99.90
8862;DHT22;4799;50.996;4.754;2022-09-09T07:21:30;16.30;99.90
8862;DHT22;4799;50.996;4.754;2022-09-09T07:23:56;16.30;99.90
8862;DHT22;4799;50.996;4.754;2022-09-09T07:26:25;16.40;99.90
8862;DHT22;4799;50.996;4.754;2022-09-09T07:28:51;16.40;99.90
8862;DHT22;4799;50.996;4.754;2022-09-09T07:31:19;16.30;99.90
8862;DHT22;4799;50.996;4.754;2022-09-09T07:33:46;16.30;99.90
8862;DHT22;4799;50.996;4.754;2022-09-09T07:36:15;16.30;99.90
8862;DHT22;4799;50.996;4.754;2022-09-09T07:38:46;16.30;99.90
8862;DHT22;4799;50.996;4.754;2022-09-09T07:41:16;16.40;99.90
8862;DHT22;4799;50.996;4.754;2022-09-09T07:43:44;16.40;99.90
8862;DHT22;4799;50.996;4.754;2022-09-09T07:46:12;16.50;99.90
8862;DHT22;4799;50.996;4.754;2022-09-09T07:48:42;16.50;99.90
8862;DHT22;4799;50.996;4.754;2022-09-09T07:51:15;16.60;99.90
8862;DHT22;4799;50.996;4.754;2022-09-09T07:53:43;16.60;99.90
8862;DHT22;4799;50.996;4.754;2022-09-09T07:56:11;16.70;99.90
8862;DHT22;4799;50.996;4.754;2022-09-09T07:58:39;16.70;99.90
8862;DHT22;4799;50.996;4.754;2022-09-09T08:01:10;16.80;99.90
8862;DHT22;4799;50.996;4.754;2022-09-09T08:03:37;17.00;99.90
8862;DHT22;4799;50.996;4.754;2022-09-09T08:06:05;17.10;99.90
8862;DHT22;4799;50.996;4.754;2022-09-09T08:08:33;17.10;99.90
8862;DHT22;4799;50.996;4.754;2022-09-09T08:11:13;17.10;99.90
8862;DHT22;4799;50.996;4.754;2022-09-09T08:13:40;17.20;99.90
8862;DHT22;4799;50.996;4.754;2022-09-09T08:16:12;17.30;99.90
8862;DHT22;4799;50.996;4.754;2022-09-09T08:18:39;17.40;99.90
8862;DHT22;4799;50.996;4.754;2022-09-09T08:21:14;17.40;99.90
8862;DHT22;4799;50.996;4.754;2022-09-09T08:23:44;17.40;99.90
8862;DHT22;4799;50.996;4.754;2022-09-09T08:26:22;17.40;99.90
8862;DHT22;4799;50.996;4.754;2022-09-09T08:28:50;17.50;99.90
8862;DHT22;4799;50.996;4.754;2022-09-09T08:31:25;17.60;99.90
8862;DHT22;4799;50.996;4.754;2022-09-09T08:33:51;17.70;99.90
8862;DHT22;4799;50.996;4.754;2022-09-09T08:36:19;17.70;99.90
8862;DHT22;4799;50.996;4.754;2022-09-09T08:38:53;17.80;99.90
8862;DHT22;4799;50.996;4.754;2022-09-09T08:44:07;18.00;99.90
8862;DHT22;4799;50.996;4.754;2022-09-09T08:52:53;18.10;99.90
8862;DHT22;4799;50.996;4.754;2022-09-09T08:55:47;18.10;99.90
8862;DHT22;4799;50.996;4.754;2022-09-09T08:58:17;18.00;99.90
8862;DHT22;4799;50.996;4.754;2022-09-09T09:11:55;18.10;99.90
8862;DHT22;4799;50.996;4.754;2022-09-09T09:14:30;18.20;99.90
8862;DHT22;4799;50.996;4.754;2022-09-09T09:17:18;18.20;99.90
8862;DHT22;4799;50.996;4.754;2022-09-09T09:19:46;18.20;99.90
8862;DHT22;4799;50.996;4.754;2022-09-09T09:22:19;18.10;99.90
8862;DHT22;4799;50.996;4.754;2022-09-09T09:25:15;18.20;99.90
8862;DHT22;4799;50.996;4.754;2022-09-09T09:27:51;18.10;99.90
8862;DHT22;4799;50.996;4.754;2022-09-09T09:30:20;18.00;99.90
8862;DHT22;4799;50.996;4.754;2022-09-09T09:35:18;18.10;99.90
8862;DHT22;4799;50.996;4.754;2022-09-09T09:37:44;18.20;99.90
8862;DHT22;4799;50.996;4.754;2022-09-09T09:40:16;18.30;99.90
8862;DHT22;4799;50.996;4.754;2022-09-09T09:42:52;18.30;99.90
8862;DHT22;4799;50.996;4.754;2022-09-09T09:45:33;18.30;99.90
8862;DHT22;4799;50.996;4.754;2022-09-09T09:48:05;18.30;99.90
8862;DHT22;4799;50.996;4.754;2022-09-09T09:50:32;18.30;99.90
8862;DHT22;4799;50.996;4.754;2022-09-09T09:53:00;18.30;99.90
8862;DHT22;4799;50.996;4.754;2022-09-09T09:55:28;18.30;99.90
8862;DHT22;4799;50.996;4.754;2022-09-09T09:58:04;18.20;99.90
8862;DHT22;4799;50.996;4.754;2022-09-09T10:00:31;18.20;99.90
8862;DHT22;4799;50.996;4.754;2022-09-09T10:02:59;18.30;99.90
8862;DHT22;4799;50.996;4.754;2022-09-09T10:05:28;18.40;99.90
8862;DHT22;4799;50.996;4.754;2022-09-09T10:08:24;18.40;99.90
8862;DHT22;4799;50.996;4.754;2022-09-09T10:11:05;18.50;99.90
8862;DHT22;4799;50.996;4.754;2022-09-09T10:19:41;18.30;99.90
8862;DHT22;4799;50.996;4.754;2022-09-09T10:27:19;18.20;99.90
8862;DHT22;4799;50.996;4.754;2022-09-09T10:30:06;18.10;99.90
8862;DHT22;4799;50.996;4.754;2022-09-09T10:39:05;18.00;99.90
8862;DHT22;4799;50.996;4.754;2022-09-09T10:41:44;18.10;99.90
8862;DHT22;4799;50.996;4.754;2022-09-09T10:46:52;18.20;99.90
8862;DHT22;4799;50.996;4.754;2022-09-09T10:49:52;18.30;99.90
8862;DHT22;4799;50.996;4.754;2022-09-09T10:55:24;18.80;99.90
8862;DHT22;4799;50.996;4.754;2022-09-09T10:57:58;19.00;99.90
8862;DHT22;4799;50.996;4.754;2022-09-09T11:00:36;19.30;99.90
8862;DHT22;4799;50.996;4.754;2022-09-09T11:03:04;19.60;99.90
8862;DHT22;4799;50.996;4.754;2022-09-09T11:06:02;19.90;99.90
8862;DHT22;4799;50.996;4.754;2022-09-09T11:08:32;20.10;99.90
8862;DHT22;4799;50.996;4.754;2022-09-09T11:14:03;20.30;99.90
8862;DHT22;4799;50.996;4.754;2022-09-09T11:19:09;20.50;99.90
8862;DHT22;4799;50.996;4.754;2022-09-09T11:21:47;20.60;99.90
8862;DHT22;4799;50.996;4.754;2022-09-09T11:24:26;20.50;99.90
8862;DHT22;4799;50.996;4.754;2022-09-09T11:30:50;20.70;99.90
8862;DHT22;4799;50.996;4.754;2022-09-09T11:33:56;20.80;99.90
8862;DHT22;4799;50.996;4.754;2022-09-09T11:42:07;20.70;99.90
8862;DHT22;4799;50.996;4.754;2022-09-09T11:44:41;20.60;99.90
8862;DHT22;4799;50.996;4.754;2022-09-09T11:47:36;20.50;99.90
8862;DHT22;4799;50.996;4.754;2022-09-09T11:52:42;20.60;99.90
8862;DHT22;4799;50.996;4.754;2022-09-09T11:55:28;20.70;99.90
8862;DHT22;4799;50.996;4.754;2022-09-09T12:00:45;21.50;99.90
8862;DHT22;4799;50.996;4.754;2022-09-09T12:03:45;21.70;99.90
8862;DHT22;4799;50.996;4.754;2022-09-09T12:06:19;21.60;99.90
8862;DHT22;4799;50.996;4.754;2022-09-09T12:08:57;21.50;99.90
8862;DHT22;4799;50.996;4.754;2022-09-09T12:11:28;21.50;99.90
8862;DHT22;4799;50.996;4.754;2022-09-09T12:13:56;21.60;99.90
8862;DHT22;4799;50.996;4.754;2022-09-09T12:16:36;21.60;99.90
8862;DHT22;4799;50.996;4.754;2022-09-09T12:19:16;21.70;99.90
8862;DHT22;4799;50.996;4.754;2022-09-09T12:24:56;21.80;99.90
8862;DHT22;4799;50.996;4.754;2022-09-09T12:27:33;21.80;99.90
8862;DHT22;4799;50.996;4.754;2022-09-09T12:30:07;21.90;99.90
8862;DHT22;4799;50.996;4.754;2022-09-09T12:32:35;21.90;99.90
8862;DHT22;4799;50.996;4.754;2022-09-09T12:35:22;22.00;99.90
8862;DHT22;4799;50.996;4.754;2022-09-09T12:38:01;22.20;99.90
8862;DHT22;4799;50.996;4.754;2022-09-09T12:40:33;22.30;99.90
8862;DHT22;4799;50.996;4.754;2022-09-09T12:43:01;22.40;99.90
8862;DHT22;4799;50.996;4.754;2022-09-09T12:45:30;22.40;99.90
8862;DHT22;4799;50.996;4.754;2022-09-09T12:48:03;22.50;99.90
8862;DHT22;4799;50.996;4.754;2022-09-09T12:50:33;22.50;99.90
8862;DHT22;4799;50.996;4.754;2022-09-09T12:53:51;22.50;99.90
8862;DHT22;4799;50.996;4.754;2022-09-09T12:56:02;22.50;99.90
8862;DHT22;4799;50.996;4.754;2022-09-09T12:58:29;22.50;99.90
8862;DHT22;4799;50.996;4.754;2022-09-09T13:00:59;22.60;99.90
8862;DHT22;4799;50.996;4.754;2022-09-09T13:03:26;22.60;99.90
8862;DHT22;4799;50.996;4.754;2022-09-09T13:05:53;22.60;99.90
8862;DHT22;4799;50.996;4.754;2022-09-09T13:08:24;22.70;99.90
8862;DHT22;4799;50.996;4.754;2022-09-09T13:10:56;22.90;99.90
8862;DHT22;4799;50.996;4.754;2022-09-09T13:13:38;23.00;99.90
8862;DHT22;4799;50.996;4.754;2022-09-09T13:16:06;23.00;99.90
8862;DHT22;4799;50.996;4.754;2022-09-09T13:18:35;22.90;99.90
8862;DHT22;4799;50.996;4.754;2022-09-09T13:21:02;22.80;99.90
8862;DHT22;4799;50.996;4.754;2022-09-09T13:23:36;22.80;99.90
8862;DHT22;4799;50.996;4.754;2022-09-09T13:26:20;22.80;99.90
8862;DHT22;4799;50.996;4.754;2022-09-09T13:28:50;22.80;99.90
8862;DHT22;4799;50.996;4.754;2022-09-09T13:31:32;22.80;99.90
8862;DHT22;4799;50.996;4.754;2022-09-09T13:33:58;23.10;99.90
8862;DHT22;4799;50.996;4.754;2022-09-09T13:36:29;23.30;99.90
8862;DHT22;4799;50.996;4.754;2022-09-09T13:38:57;23.50;99.90
8862;DHT22;4799;50.996;4.754;2022-09-09T13:41:42;23.50;99.90
8862;DHT22;4799;50.996;4.754;2022-09-09T13:44:25;23.50;99.90
8862;DHT22;4799;50.996;4.754;2022-09-09T13:47:02;23.60;99.90
8862;DHT22;4799;50.996;4.754;2022-09-09T13:49:29;23.70;99.90
8862;DHT22;4799;50.996;4.754;2022-09-09T13:52:13;23.60;99.90
8862;DHT22;4799;50.996;4.754;2022-09-09T13:54:39;23.40;99.90
8862;DHT22;4799;50.996;4.754;2022-09-09T13:57:06;23.40;99.90
8862;DHT22;4799;50.996;4.754;2022-09-09T13:59:39;23.40;99.90
8862;DHT22;4799;50.996;4.754;2022-09-09T14:02:05;23.30;99.90
8862;DHT22;4799;50.996;4.754;2022-09-09T14:04:30;23.20;99.90
8862;DHT22;4799;50.996;4.754;2022-09-09T14:06:56;23.10;99.90
8862;DHT22;4799;50.996;4.754;2022-09-09T14:09:22;23.00;99.90
8862;DHT22;4799;50.996;4.754;2022-09-09T14:11:47;22.90;99.90
8862;DHT22;4799;50.996;4.754;2022-09-09T14:14:13;22.90;99.90
8862;DHT22;4799;50.996;4.754;2022-09-09T14:16:39;22.80;99.90
8862;DHT22;4799;50.996;4.754;2022-09-09T14:19:05;22.80;99.90
8862;DHT22;4799;50.996;4.754;2022-09-09T14:21:31;22.90;99.90
8862;DHT22;4799;50.996;4.754;2022-09-09T14:23:58;23.10;99.90
8862;DHT22;4799;50.996;4.754;2022-09-09T14:26:24;23.30;99.90
8862;DHT22;4799;50.996;4.754;2022-09-09T14:28:50;23.30;99.90
8862;DHT22;4799;50.996;4.754;2022-09-09T14:31:17;23.30;99.90
8862;DHT22;4799;50.996;4.754;2022-09-09T14:33:44;23.30;99.90
8862;DHT22;4799;50.996;4.754;2022-09-09T14:36:10;23.20;99.90
8862;DHT22;4799;50.996;4.754;2022-09-09T14:38:37;23.20;99.90
8862;DHT22;4799;50.996;4.754;2022-09-09T14:41:10;23.40;99.90
8862;DHT22;4799;50.996;4.754;2022-09-09T14:43:39;23.60;99.90
8862;DHT22;4799;50.996;4.754;2022-09-09T14:46:10;23.70;99.90
8862;DHT22;4799;50.996;4.754;2022-09-09T14:48:36;23.70;99.50
8862;DHT22;4799;50.996;4.754;2022-09-09T14:51:13;23.80;99.90
8862;DHT22;4799;50.996;4.754;2022-09-09T14:53:41;23.80;99.90
8862;DHT22;4799;50.996;4.754;2022-09-09T14:56:09;23.90;99.90
8862;DHT22;4799;50.996;4.754;2022-09-09T14:58:36;23.90;99.90
8862;DHT22;4799;50.996;4.754;2022-09-09T15:01:08;24.00;99.80
8862;DHT22;4799;50.996;4.754;2022-09-09T15:03:36;23.90;98.70
8862;DHT22;4799;50.996;4.754;2022-09-09T15:06:13;23.70;99.90
8862;DHT22;4799;50.996;4.754;2022-09-09T15:08:42;23.70;99.90
8862;DHT22;4799;50.996;4.754;2022-09-09T15:11:09;23.60;99.90
8862;DHT22;4799;50.996;4.754;2022-09-09T15:13:38;23.60;99.90
8862;DHT22;4799;50.996;4.754;2022-09-09T15:16:09;23.60;99.90
8862;DHT22;4799;50.996;4.754;2022-09-09T15:18:36;23.50;99.90
8862;DHT22;4799;50.996;4.754;2022-09-09T15:21:06;23.40;99.90
8862;DHT22;4799;50.996;4.754;2022-09-09T15:23:35;23.30;99.90
8862;DHT22;4799;50.996;4.754;2022-09-09T15:26:02;23.30;99.90
8862;DHT22;4799;50.996;4.754;2022-09-09T15:28:28;23.20;99.90
8862;DHT22;4799;50.996;4.754;2022-09-09T15:30:54;23.10;99.90
8862;DHT22;4799;50.996;4.754;2022-09-09T15:33:21;23.00;99.90
8862;DHT22;4799;50.996;4.754;2022-09-09T15:35:47;22.90;99.90
8862;DHT22;4799;50.996;4.754;2022-09-09T15:38:15;22.90;99.90
8862;DHT22;4799;50.996;4.754;2022-09-09T15:40:43;23.00;99.90
8862;DHT22;4799;50.996;4.754;2022-09-09T15:43:09;23.20;99.90
8862;DHT22;4799;50.996;4.754;2022-09-09T15:45:36;23.40;99.90
8862;DHT22;4799;50.996;4.754;2022-09-09T15:48:03;23.50;99.90
8862;DHT22;4799;50.996;4.754;2022-09-09T15:50:30;23.60;99.80
8862;DHT22;4799;50.996;4.754;2022-09-09T15:52:59;23.70;99.30
8862;DHT22;4799;50.996;4.754;2022-09-09T15:55:25;23.60;99.20
8862;DHT22;4799;50.996;4.754;2022-09-09T15:57:51;23.50;99.40
8862;DHT22;4799;50.996;4.754;2022-09-09T16:00:18;23.30;99.60
8862;DHT22;4799;50.996;4.754;2022-09-09T16:02:49;23.10;99.70
8862;DHT22;4799;50.996;4.754;2022-09-09T16:05:15;23.00;99.90
8862;DHT22;4799;50.996;4.754;2022-09-09T16:07:41;22.80;99.90
8862;DHT22;4799;50.996;4.754;2022-09-09T16:10:08;22.60;99.90
8862;DHT22;4799;50.996;4.754;2022-09-09T16:12:34;22.50;99.90
8862;DHT22;4799;50.996;4.754;2022-09-09T16:15:00;22.30;99.40
8862;DHT22;4799;50.996;4.754;2022-09-09T16:17:26;22.20;99.80
8862;DHT22;4799;50.996;4.754;2022-09-09T16:19:53;21.90;99.90
8862;DHT22;4799;50.996;4.754;2022-09-09T16:22:19;21.70;99.90
8862;DHT22;4799;50.996;4.754;2022-09-09T16:24:45;21.60;99.90
8862;DHT22;4799;50.996;4.754;2022-09-09T16:27:11;21.50;99.90
8862;DHT22;4799;50.996;4.754;2022-09-09T16:29:37;21.30;99.90
8862;DHT22;4799;50.996;4.754;2022-09-09T16:32:08;21.20;99.90
8862;DHT22;4799;50.996;4.754;2022-09-09T16:34:38;21.10;99.90
8862;DHT22;4799;50.996;4.754;2022-09-09T16:37:04;21.00;99.90
8862;DHT22;4799;50.996;4.754;2022-09-09T16:39:29;20.90;99.90
8862;DHT22;4799;50.996;4.754;2022-09-09T16:41:55;20.80;99.90
8862;DHT22;4799;50.996;4.754;2022-09-09T16:44:22;20.80;99.90
8862;DHT22;4799;50.996;4.754;2022-09-09T16:46:48;20.70;99.90
8862;DHT22;4799;50.996;4.754;2022-09-09T16:49:17;20.60;99.90
8862;DHT22;4799;50.996;4.754;2022-09-09T16:51:51;20.50;99.90
8862;DHT22;4799;50.996;4.754;2022-09-09T16:54:20;20.50;99.90
8862;DHT22;4799;50.996;4.754;2022-09-09T16:56:47;20.50;99.90
8862;DHT22;4799;50.996;4.754;2022-09-09T16:59:21;20.40;99.90
8862;DHT22;4799;50.996;4.754;2022-09-09T17:01:48;20.50;99.90
8862;DHT22;4799;50.996;4.754;2022-09-09T17:04:17;20.40;99.90
8862;DHT22;4799;50.996;4.754;2022-09-09T17:06:49;20.40;99.90
8862;DHT22;4799;50.996;4.754;2022-09-09T17:09:16;20.30;99.90
8862;DHT22;4799;50.996;4.754;2022-09-09T17:11:42;20.30;99.90
8862;DHT22;4799;50.996;4.754;2022-09-09T17:14:10;20.30;99.90
8862;DHT22;4799;50.996;4.754;2022-09-09T17:16:37;20.40;99.90
8862;DHT22;4799;50.996;4.754;2022-09-09T17:19:05;20.50;99.90
8862;DHT22;4799;50.996;4.754;2022-09-09T17:21:32;20.60;99.90
8862;DHT22;4799;50.996;4.754;2022-09-09T17:23:58;20.60;99.90
8862;DHT22;4799;50.996;4.754;2022-09-09T17:26:27;20.60;99.90
8862;DHT22;4799;50.996;4.754;2022-09-09T17:28:54;20.60;99.90
8862;DHT22;4799;50.996;4.754;2022-09-09T17:31:21;20.70;99.90
8862;DHT22;4799;50.996;4.754;2022-09-09T17:33:49;20.70;99.90
8862;DHT22;4799;50.996;4.754;2022-09-09T17:36:18;20.70;99.90
8862;DHT22;4799;50.996;4.754;2022-09-09T17:38:44;20.70;99.90
8862;DHT22;4799;50.996;4.754;2022-09-09T17:41:21;20.60;99.90
8862;DHT22;4799;50.996;4.754;2022-09-09T17:43:47;20.60;99.90
8862;DHT22;4799;50.996;4.754;2022-09-09T17:46:28;20.50;99.90
8862;DHT22;4799;50.996;4.754;2022-09-09T17:48:59;20.50;99.90
8862;DHT22;4799;50.996;4.754;2022-09-09T17:51:27;20.40;99.90
8862;DHT22;4799;50.996;4.754;2022-09-09T17:53:56;20.40;99.90
8862;DHT22;4799;50.996;4.754;2022-09-09T17:56:24;20.30;99.90
8862;DHT22;4799;50.996;4.754;2022-09-09T17:58:51;20.20;99.90
8862;DHT22;4799;50.996;4.754;2022-09-09T18:01:19;20.10;99.90
8862;DHT22;4799;50.996;4.754;2022-09-09T18:03:46;20.10;99.90
8862;DHT22;4799;50.996;4.754;2022-09-09T18:06:21;20.00;99.90
8862;DHT22;4799;50.996;4.754;2022-09-09T18:08:50;19.90;99.90
8862;DHT22;4799;50.996;4.754;2022-09-09T18:11:18;19.80;99.90
8862;DHT22;4799;50.996;4.754;2022-09-09T18:13:53;19.70;99.90
8862;DHT22;4799;50.996;4.754;2022-09-09T18:16:20;19.60;99.90